sensor_id;sensor_type;location;lat;lon;timestamp;pressure;altitude;pressure_sealevel;temperature;humidity
43804;BME280;29430;52.924;-2.388;2023-05-18T00:00:16;100424.06;;;12.49;62.51
43804;BME280;29430;52.924;-2.388;2023-05-18T00:05:09;100420.75;;;12.47;62.93
43804;BME280;29430;52.924;-2.388;2023-05-18T00:10:02;100422.22;;;12.43;62.68
43804;BME280;29430;52.924;-2.388;2023-05-18T00:14:53;100417.84;;;12.42;63.31
43804;BME280;29430;52.924;-2.388;2023-05-18T00:19:45;100415.31;;;12.41;63.66
43804;BME280;29430;52.924;-2.388;2023-05-18T00:24:37;100411.34;;;12.36;63.96
43804;BME280;29430;52.924;-2.388;2023-05-18T00:29:29;100416.59;;;12.31;63.88
43804;BME280;29430;52.924;-2.388;2023-05-18T00:34:20;100410.50;;;12.29;63.02
43804;BME280;29430;52.924;-2.388;2023-05-18T00:39:12;100409.28;;;12.25;63.78
43804;BME280;29430;52.924;-2.388;2023-05-18T00:44:03;100418.69;;;12.23;63.51
43804;BME280;29430;52.924;-2.388;2023-05-18T00:48:55;100413.25;;;12.23;64.29
43804;BME280;29430;52.924;-2.388;2023-05-18T00:53:48;100413.25;;;12.23;64.54
43804;BME280;29430;52.924;-2.388;2023-05-18T00:58:41;100411.38;;;12.23;63.96
43804;BME280;29430;52.924;-2.388;2023-05-18T01:03:33;100413.25;;;12.23;63.94
43804;BME280;29430;52.924;-2.388;2023-05-18T01:08:26;100407.41;;;12.19;64.88
43804;BME280;29430;52.924;-2.388;2023-05-18T01:13:26;100413.28;;;12.16;65.58
43804;BME280;29430;52.924;-2.388;2023-05-18T01:18:26;100408.03;;;12.14;64.57
43804;BME280;29430;52.924;-2.388;2023-05-18T01:23:42;100409.72;;;12.09;64.75
43804;BME280;29430;52.924;-2.388;2023-05-18T01:28:35;100417.47;;;12.05;63.83
43804;BME280;29430;52.924;-2.388;2023-05-18T01:33:27;100413.28;;;12.03;63.36
43804;BME280;29430;52.924;-2.388;2023-05-18T01:38:21;100421.44;;;12.03;63.26
43804;BME280;29430;52.924;-2.388;2023-05-18T01:43:17;100415.78;;;12.04;64.08
43804;BME280;29430;52.924;-2.388;2023-05-18T01:48:15;100416.81;;;12.03;64.21
43804;BME280;29430;52.924;-2.388;2023-05-18T01:53:17;100414.72;;;11.98;64.17
43804;BME280;29430;52.924;-2.388;2023-05-18T01:58:11;100416.44;;;11.93;64.63
43804;BME280;29430;52.924;-2.388;2023-05-18T02:03:03;100410.53;;;11.89;65.02
43804;BME280;29430;52.924;-2.388;2023-05-18T02:07:56;100417.44;;;11.85;65.59
43804;BME280;29430;52.924;-2.388;2023-05-18T02:12:48;100410.53;;;11.76;66.87
43804;BME280;29430;52.924;-2.388;2023-05-18T02:17:43;100415.31;;;11.74;67.57
43804;BME280;29430;52.924;-2.388;2023-05-18T02:22:35;100408.00;;;11.68;67.81
43804;BME280;29430;52.924;-2.388;2023-05-18T02:27:27;100399.84;;;11.61;68.71
43804;BME280;29430;52.924;-2.388;2023-05-18T02:32:19;100409.66;;;11.55;69.58
43804;BME280;29430;52.924;-2.388;2023-05-18T02:37:11;100401.50;;;11.49;70.37
43804;BME280;29430;52.924;-2.388;2023-05-18T02:42:03;100402.97;;;11.44;70.42
43804;BME280;29430;52.924;-2.388;2023-05-18T02:46:55;100399.41;;;11.44;71.65
43804;BME280;29430;52.924;-2.388;2023-05-18T02:51:47;100406.94;;;11.42;71.39
43804;BME280;29430;52.924;-2.388;2023-05-18T02:56:39;100412.19;;;11.43;72.39
43804;BME280;29430;52.924;-2.388;2023-05-18T03:01:32;100415.50;;;11.45;73.55
43804;BME280;29430;52.924;-2.388;2023-05-18T03:06:28;100412.78;;;11.45;73.50
43804;BME280;29430;52.924;-2.388;2023-05-18T03:11:21;100412.59;;;11.47;74.04
43804;BME280;29430;52.924;-2.388;2023-05-18T03:16:13;100410.91;;;11.46;73.82
43804;BME280;29430;52.924;-2.388;2023-05-18T03:21:05;100408.19;;;11.46;74.17
43804;BME280;29430;52.924;-2.388;2023-05-18T03:25:58;100399.00;;;11.47;74.47
43804;BME280;29430;52.924;-2.388;2023-05-18T03:30:53;100399.22;;;11.45;74.90
43804;BME280;29430;52.924;-2.388;2023-05-18T03:35:45;100394.41;;;11.41;75.30
43804;BME280;29430;52.924;-2.388;2023-05-18T03:40:39;100384.97;;;11.37;75.99
43804;BME280;29430;52.924;-2.388;2023-05-18T03:45:30;100378.50;;;11.31;75.49
43804;BME280;29430;52.924;-2.388;2023-05-18T03:50:22;100388.31;;;11.32;75.26
43804;BME280;29430;52.924;-2.388;2023-05-18T03:55:14;100387.28;;;11.26;76.39
43804;BME280;29430;52.924;-2.388;2023-05-18T04:00:07;100383.28;;;11.22;75.70
43804;BME280;29430;52.924;-2.388;2023-05-18T04:05:02;100390.81;;;11.20;76.18
43804;BME280;29430;52.924;-2.388;2023-05-18T04:09:55;100395.41;;;11.20;76.54
43804;BME280;29430;52.924;-2.388;2023-05-18T04:14:47;100398.75;;;11.22;76.57
43804;BME280;29430;52.924;-2.388;2023-05-18T04:19:40;100411.28;;;11.23;76.99
43804;BME280;29430;52.924;-2.388;2023-05-18T04:24:32;100408.56;;;11.23;77.58
43804;BME280;29430;52.924;-2.388;2023-05-18T04:29:28;100402.09;;;11.24;77.92
43804;BME280;29430;52.924;-2.388;2023-05-18T04:34:20;100402.72;;;11.26;77.86
43804;BME280;29430;52.924;-2.388;2023-05-18T04:39:11;100410.66;;;11.27;78.56
43804;BME280;29430;52.924;-2.388;2023-05-18T04:44:03;100406.50;;;11.32;78.51
43804;BME280;29430;52.924;-2.388;2023-05-18T04:48:55;100414.25;;;11.41;78.73
43804;BME280;29430;52.924;-2.388;2023-05-18T04:53:48;100425.97;;;11.49;78.30
43804;BME280;29430;52.924;-2.388;2023-05-18T04:58:40;100425.75;;;11.50;78.70
43804;BME280;29430;52.924;-2.388;2023-05-18T05:03:36;100420.75;;;11.54;77.88
43804;BME280;29430;52.924;-2.388;2023-05-18T05:08:28;100418.69;;;11.56;77.56
43804;BME280;29430;52.924;-2.388;2023-05-18T05:13:19;100427.44;;;11.64;77.04
43804;BME280;29430;52.924;-2.388;2023-05-18T05:18:12;100428.50;;;11.70;76.42
43804;BME280;29430;52.924;-2.388;2023-05-18T05:23:03;100429.97;;;11.73;77.08
43804;BME280;29430;52.924;-2.388;2023-05-18T05:27:56;100424.34;;;11.74;76.15
43804;BME280;29430;52.924;-2.388;2023-05-18T05:32:48;100427.69;;;11.90;76.41
43804;BME280;29430;52.924;-2.388;2023-05-18T05:37:40;100422.25;;;12.03;74.86
43804;BME280;29430;52.924;-2.388;2023-05-18T05:42:32;100419.72;;;12.22;75.53
43804;BME280;29430;52.924;-2.388;2023-05-18T05:47:24;100419.06;;;12.46;73.68
43804;BME280;29430;52.924;-2.388;2023-05-18T05:52:16;100416.06;;;12.75;72.63
43804;BME280;29430;52.924;-2.388;2023-05-18T05:57:07;100409.63;;;13.07;71.84
43804;BME280;29430;52.924;-2.388;2023-05-18T06:01:59;100414.53;;;13.31;70.27
43804;BME280;29430;52.924;-2.388;2023-05-18T06:06:51;100413.84;;;13.49;69.02
43804;BME280;29430;52.924;-2.388;2023-05-18T06:11:42;100416.88;;;13.66;69.10
43804;BME280;29430;52.924;-2.388;2023-05-18T06:16:34;100416.28;;;13.89;68.26
43804;BME280;29430;52.924;-2.388;2023-05-18T06:21:26;100427.25;;;14.07;66.38
43804;BME280;29430;52.924;-2.388;2023-05-18T06:26:17;100429.25;;;14.37;66.60
43804;BME280;29430;52.924;-2.388;2023-05-18T06:31:09;100428.19;;;14.82;65.30
43804;BME280;29430;52.924;-2.388;2023-05-18T06:36:01;100420.22;;;15.29;64.02
43804;BME280;29430;52.924;-2.388;2023-05-18T06:40:53;100420.81;;;15.73;63.04
43804;BME280;29430;52.924;-2.388;2023-05-18T06:45:45;100415.19;;;16.34;61.32
43804;BME280;29430;52.924;-2.388;2023-05-18T06:50:37;100419.41;;;17.01;59.08
43804;BME280;29430;52.924;-2.388;2023-05-18T06:55:29;100416.06;;;17.57;56.32
43804;BME280;29430;52.924;-2.388;2023-05-18T07:00:21;100418.41;;;18.33;55.30
43804;BME280;29430;52.924;-2.388;2023-05-18T07:05:12;100419.28;;;18.94;51.30
43804;BME280;29430;52.924;-2.388;2023-05-18T07:10:05;100430.50;;;19.15;51.24
43804;BME280;29430;52.924;-2.388;2023-05-18T07:14:57;100420.44;;;19.48;52.27
43804;BME280;29430;52.924;-2.388;2023-05-18T07:19:49;100423.50;;;20.11;49.76
43804;BME280;29430;52.924;-2.388;2023-05-18T07:24:41;100423.31;;;20.71;48.15
43804;BME280;29430;52.924;-2.388;2023-05-18T07:29:33;100432.66;;;21.28;48.46
43804;BME280;29430;52.924;-2.388;2023-05-18T07:34:25;100425.88;;;21.92;46.11
43804;BME280;29430;52.924;-2.388;2023-05-18T07:39:17;100418.13;;;22.30;45.97
43804;BME280;29430;52.924;-2.388;2023-05-18T07:44:10;100413.88;;;22.69;44.13
43804;BME280;29430;52.924;-2.388;2023-05-18T07:49:02;100410.88;;;23.26;43.67
43804;BME280;29430;52.924;-2.388;2023-05-18T07:53:54;100415.03;;;23.68;42.26
43804;BME280;29430;52.924;-2.388;2023-05-18T07:58:45;100401.38;;;24.40;42.05
43804;BME280;29430;52.924;-2.388;2023-05-18T08:03:37;100405.63;;;24.62;41.61
43804;BME280;29430;52.924;-2.388;2023-05-18T08:08:29;100403.47;;;25.02;40.65
43804;BME280;29430;52.924;-2.388;2023-05-18T08:13:21;100396.75;;;25.27;39.38
43804;BME280;29430;52.924;-2.388;2023-05-18T08:18:12;100403.44;;;25.64;37.90
43804;BME280;29430;52.924;-2.388;2023-05-18T08:23:04;100404.75;;;26.19;37.74
43804;BME280;29430;52.924;-2.388;2023-05-18T08:27:56;100405.72;;;26.56;35.77
43804;BME280;29430;52.924;-2.388;2023-05-18T08:32:48;100411.94;;;26.67;33.81
43804;BME280;29430;52.924;-2.388;2023-05-18T08:37:39;100412.50;;;26.22;35.61
43804;BME280;29430;52.924;-2.388;2023-05-18T08:42:36;100402.75;;;26.05;35.34
43804;BME280;29430;52.924;-2.388;2023-05-18T08:47:40;100410.84;;;26.21;34.24
43804;BME280;29430;52.924;-2.388;2023-05-18T08:52:35;100408.19;;;26.43;32.41
43804;BME280;29430;52.924;-2.388;2023-05-18T08:57:29;100407.97;;;26.54;32.49
43804;BME280;29430;52.924;-2.388;2023-05-18T09:02:21;100404.28;;;26.58;33.18
43804;BME280;29430;52.924;-2.388;2023-05-18T09:07:13;100405.31;;;27.04;32.85
43804;BME280;29430;52.924;-2.388;2023-05-18T09:12:07;100396.19;;;27.40;30.10
43804;BME280;29430;52.924;-2.388;2023-05-18T09:16:59;100388.59;;;27.18;31.56
43804;BME280;29430;52.924;-2.388;2023-05-18T09:21:51;100390.28;;;27.05;31.58
43804;BME280;29430;52.924;-2.388;2023-05-18T09:26:42;100376.41;;;27.14;30.73
43804;BME280;29430;52.924;-2.388;2023-05-18T09:31:35;100388.22;;;26.83;31.99
43804;BME280;29430;52.924;-2.388;2023-05-18T09:36:27;100386.38;;;26.78;32.00
43804;BME280;29430;52.924;-2.388;2023-05-18T09:41:25;100387.53;;;26.77;31.78
43804;BME280;29430;52.924;-2.388;2023-05-18T09:46:17;100386.47;;;26.59;32.35
43804;BME280;29430;52.924;-2.388;2023-05-18T09:51:12;100392.03;;;26.73;32.21
43804;BME280;29430;52.924;-2.388;2023-05-18T09:56:07;100383.38;;;26.61;31.95
43804;BME280;29430;52.924;-2.388;2023-05-18T10:01:02;100389.03;;;26.42;31.98
43804;BME280;29430;52.924;-2.388;2023-05-18T10:05:54;100389.22;;;26.32;32.72
43804;BME280;29430;52.924;-2.388;2023-05-18T10:10:47;100391.28;;;26.26;32.35
43804;BME280;29430;52.924;-2.388;2023-05-18T10:15:47;100393.75;;;26.14;32.06
43804;BME280;29430;52.924;-2.388;2023-05-18T10:20:40;100395.69;;;26.13;31.45
43804;BME280;29430;52.924;-2.388;2023-05-18T10:25:34;100392.94;;;25.94;31.21
43804;BME280;29430;52.924;-2.388;2023-05-18T10:30:26;100389.53;;;25.45;31.16
43804;BME280;29430;52.924;-2.388;2023-05-18T10:35:18;100381.59;;;25.38;32.28
43804;BME280;29430;52.924;-2.388;2023-05-18T10:40:12;100382.56;;;25.48;30.97
43804;BME280;29430;52.924;-2.388;2023-05-18T10:45:06;100371.84;;;25.41;32.52
43804;BME280;29430;52.924;-2.388;2023-05-18T10:50:00;100376.13;;;25.52;30.79
43804;BME280;29430;52.924;-2.388;2023-05-18T10:54:53;100376.31;;;25.75;31.41
43804;BME280;29430;52.924;-2.388;2023-05-18T10:59:45;100374.19;;;26.19;30.31
43804;BME280;29430;52.924;-2.388;2023-05-18T11:04:39;100370.94;;;25.98;30.24
43804;BME280;29430;52.924;-2.388;2023-05-18T11:09:32;100385.06;;;26.01;31.60
43804;BME280;29430;52.924;-2.388;2023-05-18T11:14:31;100386.53;;;26.26;31.64
43804;BME280;29430;52.924;-2.388;2023-05-18T11:19:26;100385.94;;;26.30;30.15
43804;BME280;29430;52.924;-2.388;2023-05-18T11:24:29;100390.44;;;26.25;29.88
43804;BME280;29430;52.924;-2.388;2023-05-18T11:29:44;100389.09;;;26.09;30.78
43804;BME280;29430;52.924;-2.388;2023-05-18T11:34:43;100380.75;;;25.90;29.55
43804;BME280;29430;52.924;-2.388;2023-05-18T11:39:36;100380.38;;;25.64;30.74
43804;BME280;29430;52.924;-2.388;2023-05-18T11:44:50;100381.50;;;25.44;29.87
43804;BME280;29430;52.924;-2.388;2023-05-18T11:49:45;100369.28;;;25.26;32.01
43804;BME280;29430;52.924;-2.388;2023-05-18T11:54:53;100372.53;;;25.52;31.20
43804;BME280;29430;52.924;-2.388;2023-05-18T11:59:46;100362.44;;;25.56;31.36
43804;BME280;29430;52.924;-2.388;2023-05-18T12:04:44;100363.78;;;25.20;30.97
43804;BME280;29430;52.924;-2.388;2023-05-18T12:09:40;100356.34;;;25.16;30.38
43804;BME280;29430;52.924;-2.388;2023-05-18T12:14:34;100358.31;;;25.53;31.36
43804;BME280;29430;52.924;-2.388;2023-05-18T12:19:26;100352.72;;;25.72;30.24
43804;BME280;29430;52.924;-2.388;2023-05-18T12:24:19;100364.25;;;25.47;30.10
43804;BME280;29430;52.924;-2.388;2023-05-18T12:29:12;100355.63;;;25.29;29.46
43804;BME280;29430;52.924;-2.388;2023-05-18T12:34:10;100353.34;;;25.12;31.16
43804;BME280;29430;52.924;-2.388;2023-05-18T12:39:02;100357.63;;;25.05;31.06
43804;BME280;29430;52.924;-2.388;2023-05-18T12:43:54;100350.06;;;25.10;30.32
43804;BME280;29430;52.924;-2.388;2023-05-18T12:48:46;100350.38;;;25.09;32.01
43804;BME280;29430;52.924;-2.388;2023-05-18T12:53:41;100344.56;;;25.05;31.74
43804;BME280;29430;52.924;-2.388;2023-05-18T12:58:33;100340.00;;;25.14;31.37
43804;BME280;29430;52.924;-2.388;2023-05-18T13:03:31;100338.59;;;24.98;31.21
43804;BME280;29430;52.924;-2.388;2023-05-18T13:08:24;100326.50;;;24.89;32.40
43804;BME280;29430;52.924;-2.388;2023-05-18T13:13:16;100338.41;;;24.89;32.58
43804;BME280;29430;52.924;-2.388;2023-05-18T13:18:09;100321.69;;;24.75;30.69
43804;BME280;29430;52.924;-2.388;2023-05-18T13:23:04;100326.03;;;24.62;31.42
43804;BME280;29430;52.924;-2.388;2023-05-18T13:27:56;100322.34;;;24.43;31.65
43804;BME280;29430;52.924;-2.388;2023-05-18T13:32:48;100328.53;;;24.35;32.13
43804;BME280;29430;52.924;-2.388;2023-05-18T13:37:41;100324.81;;;24.20;33.05
43804;BME280;29430;52.924;-2.388;2023-05-18T13:42:33;100320.22;;;24.10;32.71
43804;BME280;29430;52.924;-2.388;2023-05-18T13:47:25;100321.78;;;23.92;33.10
43804;BME280;29430;52.924;-2.388;2023-05-18T13:52:16;100314.03;;;23.89;33.87
43804;BME280;29430;52.924;-2.388;2023-05-18T13:57:08;100311.34;;;23.79;32.90
43804;BME280;29430;52.924;-2.388;2023-05-18T14:02:00;100311.44;;;23.69;33.10
43804;BME280;29430;52.924;-2.388;2023-05-18T14:06:52;100309.63;;;23.54;32.67
43804;BME280;29430;52.924;-2.388;2023-05-18T14:11:46;100313.09;;;23.35;33.49
43804;BME280;29430;52.924;-2.388;2023-05-18T14:16:37;100310.63;;;23.34;32.61
43804;BME280;29430;52.924;-2.388;2023-05-18T14:21:29;100312.69;;;23.18;33.06
43804;BME280;29430;52.924;-2.388;2023-05-18T14:26:21;100309.34;;;23.21;33.95
43804;BME280;29430;52.924;-2.388;2023-05-18T14:31:13;100308.31;;;23.06;34.17
43804;BME280;29430;52.924;-2.388;2023-05-18T14:36:05;100309.19;;;22.97;34.71
43804;BME280;29430;52.924;-2.388;2023-05-18T14:40:57;100308.41;;;22.86;34.74
43804;BME280;29430;52.924;-2.388;2023-05-18T14:45:48;100305.69;;;22.81;34.57
43804;BME280;29430;52.924;-2.388;2023-05-18T14:50:58;100303.25;;;22.74;35.19
43804;BME280;29430;52.924;-2.388;2023-05-18T14:55:50;100296.00;;;22.83;34.93
43804;BME280;29430;52.924;-2.388;2023-05-18T15:00:42;100290.66;;;22.97;35.74
43804;BME280;29430;52.924;-2.388;2023-05-18T15:05:33;100285.91;;;23.03;35.06
43804;BME280;29430;52.924;-2.388;2023-05-18T15:10:26;100290.91;;;23.01;35.31
43804;BME280;29430;52.924;-2.388;2023-05-18T15:15:17;100276.22;;;23.05;35.05
43804;BME280;29430;52.924;-2.388;2023-05-18T15:20:09;100276.22;;;23.05;34.76
43804;BME280;29430;52.924;-2.388;2023-05-18T15:25:01;100270.72;;;23.00;34.43
43804;BME280;29430;52.924;-2.388;2023-05-18T15:29:55;100278.22;;;22.95;34.17
43804;BME280;29430;52.924;-2.388;2023-05-18T15:34:47;100279.97;;;22.80;35.32
43804;BME280;29430;52.924;-2.388;2023-05-18T15:39:39;100269.13;;;22.89;34.06
43804;BME280;29430;52.924;-2.388;2023-05-18T15:44:30;100278.75;;;22.97;35.32
43804;BME280;29430;52.924;-2.388;2023-05-18T15:49:22;100272.91;;;23.03;35.30
43804;BME280;29430;52.924;-2.388;2023-05-18T15:54:16;100263.53;;;22.99;34.22
43804;BME280;29430;52.924;-2.388;2023-05-18T15:59:08;100269.09;;;22.94;35.34
43804;BME280;29430;52.924;-2.388;2023-05-18T16:04:00;100260.72;;;23.04;33.81
43804;BME280;29430;52.924;-2.388;2023-05-18T16:08:51;100266.59;;;22.98;38.88
43804;BME280;29430;52.924;-2.388;2023-05-18T16:13:43;100264.78;;;22.78;39.89
43804;BME280;29430;52.924;-2.388;2023-05-18T16:18:35;100261.75;;;22.74;40.08
43804;BME280;29430;52.924;-2.388;2023-05-18T16:23:27;100272.06;;;22.63;39.74
43804;BME280;29430;52.924;-2.388;2023-05-18T16:28:18;100278.16;;;22.60;41.13
43804;BME280;29430;52.924;-2.388;2023-05-18T16:33:10;100283.44;;;22.51;43.38
43804;BME280;29430;52.924;-2.388;2023-05-18T16:38:02;100277.44;;;22.34;44.05
43804;BME280;29430;52.924;-2.388;2023-05-18T16:42:54;100276.69;;;22.08;44.79
43804;BME280;29430;52.924;-2.388;2023-05-18T16:47:45;100284.19;;;21.76;45.42
43804;BME280;29430;52.924;-2.388;2023-05-18T16:52:37;100284.22;;;21.66;45.64
43804;BME280;29430;52.924;-2.388;2023-05-18T16:57:29;100284.75;;;21.37;46.16
43804;BME280;29430;52.924;-2.388;2023-05-18T17:02:21;100298.53;;;21.27;46.57
43804;BME280;29430;52.924;-2.388;2023-05-18T17:07:14;100300.19;;;21.02;46.53
43804;BME280;29430;52.924;-2.388;2023-05-18T17:12:10;100297.09;;;20.78;46.83
43804;BME280;29430;52.924;-2.388;2023-05-18T17:17:02;100290.16;;;20.65;47.42
43804;BME280;29430;52.924;-2.388;2023-05-18T17:21:54;100290.03;;;20.45;47.84
43804;BME280;29430;52.924;-2.388;2023-05-18T17:26:46;100302.44;;;20.42;47.80
43804;BME280;29430;52.924;-2.388;2023-05-18T17:31:38;100304.63;;;20.35;48.52
43804;BME280;29430;52.924;-2.388;2023-05-18T17:41:21;100297.34;;;20.08;49.09
43804;BME280;29430;52.924;-2.388;2023-05-18T17:46:13;100295.31;;;19.98;49.24
43804;BME280;29430;52.924;-2.388;2023-05-18T17:51:05;100304.63;;;19.87;49.40
43804;BME280;29430;52.924;-2.388;2023-05-18T17:55:57;100298.69;;;19.68;50.23
43804;BME280;29430;52.924;-2.388;2023-05-18T18:00:49;100305.97;;;19.52;50.12
43804;BME280;29430;52.924;-2.388;2023-05-18T18:05:40;100318.00;;;19.41;50.99
43804;BME280;29430;52.924;-2.388;2023-05-18T18:10:32;100324.59;;;19.40;51.04
43804;BME280;29430;52.924;-2.388;2023-05-18T18:15:25;100322.94;;;19.39;51.23
43804;BME280;29430;52.924;-2.388;2023-05-18T18:20:17;100312.84;;;19.17;51.16
43804;BME280;29430;52.924;-2.388;2023-05-18T18:25:09;100312.72;;;19.07;51.48
43804;BME280;29430;52.924;-2.388;2023-05-18T18:30:01;100319.28;;;19.01;51.75
43804;BME280;29430;52.924;-2.388;2023-05-18T18:34:53;100321.59;;;18.87;51.96
43804;BME280;29430;52.924;-2.388;2023-05-18T18:44:27;100339.78;;;18.49;53.21
43804;BME280;29430;52.924;-2.388;2023-05-18T18:49:19;100319.59;;;18.38;52.99
43804;BME280;29430;52.924;-2.388;2023-05-18T18:54:53;100324.97;;;18.28;53.30
43804;BME280;29430;52.924;-2.388;2023-05-18T18:59:45;100324.31;;;18.20;53.30
43804;BME280;29430;52.924;-2.388;2023-05-18T19:04:37;100336.16;;;18.04;53.64
43804;BME280;29430;52.924;-2.388;2023-05-18T19:09:29;100344.25;;;17.94;54.87
43804;BME280;29430;52.924;-2.388;2023-05-18T19:14:25;100341.16;;;17.90;55.58
43804;BME280;29430;52.924;-2.388;2023-05-18T19:19:17;100346.88;;;17.71;56.39
43804;BME280;29430;52.924;-2.388;2023-05-18T19:24:09;100337.09;;;17.59;56.99
43804;BME280;29430;52.924;-2.388;2023-05-18T19:29:01;100345.97;;;17.49;57.57
43804;BME280;29430;52.924;-2.388;2023-05-18T19:33:53;100349.69;;;17.26;58.67
43804;BME280;29430;52.924;-2.388;2023-05-18T19:38:44;100360.75;;;17.02;59.30
43804;BME280;29430;52.924;-2.388;2023-05-18T19:43:41;100371.28;;;16.93;59.94
43804;BME280;29430;52.924;-2.388;2023-05-18T19:48:33;100377.09;;;16.85;60.20
43804;BME280;29430;52.924;-2.388;2023-05-18T19:53:24;100381.91;;;16.78;61.11
43804;BME280;29430;52.924;-2.388;2023-05-18T19:58:16;100385.38;;;16.73;61.08
43804;BME280;29430;52.924;-2.388;2023-05-18T20:03:08;100387.53;;;16.59;61.28
43804;BME280;29430;52.924;-2.388;2023-05-18T20:08:00;100393.03;;;16.59;61.59
43804;BME280;29430;52.924;-2.388;2023-05-18T20:12:53;100389.56;;;16.52;61.77
43804;BME280;29430;52.924;-2.388;2023-05-18T20:17:44;100394.09;;;16.46;61.16
43804;BME280;29430;52.924;-2.388;2023-05-18T20:22:37;100391.84;;;16.43;61.88
43804;BME280;29430;52.924;-2.388;2023-05-18T20:27:29;100396.88;;;16.23;61.70
43804;BME280;29430;52.924;-2.388;2023-05-18T20:32:21;100408.50;;;16.06;62.39
43804;BME280;29430;52.924;-2.388;2023-05-18T20:37:12;100403.88;;;15.95;62.71
43804;BME280;29430;52.924;-2.388;2023-05-18T20:42:05;100407.31;;;15.79;63.22
43804;BME280;29430;52.924;-2.388;2023-05-18T20:46:57;100402.50;;;15.62;63.88
43804;BME280;29430;52.924;-2.388;2023-05-18T20:51:51;100405.66;;;15.47;64.04
43804;BME280;29430;52.924;-2.388;2023-05-18T20:56:43;100410.72;;;15.32;65.15
43804;BME280;29430;52.924;-2.388;2023-05-18T21:01:35;100405.69;;;15.17;64.51
43804;BME280;29430;52.924;-2.388;2023-05-18T21:06:31;100411.69;;;15.07;65.30
43804;BME280;29430;52.924;-2.388;2023-05-18T21:11:22;100414.97;;;14.97;65.72
43804;BME280;29430;52.924;-2.388;2023-05-18T21:16:14;100419.97;;;14.82;66.51
43804;BME280;29430;52.924;-2.388;2023-05-18T21:21:07;100422.63;;;14.70;67.26
43804;BME280;29430;52.924;-2.388;2023-05-18T21:26:00;100424.84;;;14.61;67.61
43804;BME280;29430;52.924;-2.388;2023-05-18T21:30:52;100421.47;;;14.59;68.16
43804;BME280;29430;52.924;-2.388;2023-05-18T21:35:47;100416.31;;;14.51;67.91
43804;BME280;29430;52.924;-2.388;2023-05-18T21:40:38;100419.50;;;14.48;68.13
43804;BME280;29430;52.924;-2.388;2023-05-18T21:45:34;100414.94;;;14.42;68.25
43804;BME280;29430;52.924;-2.388;2023-05-18T21:50:26;100395.91;;;14.35;68.96
43804;BME280;29430;52.924;-2.388;2023-05-18T21:55:18;100399.91;;;14.32;68.12
43804;BME280;29430;52.924;-2.388;2023-05-18T22:00:10;100401.63;;;14.27;68.78
43804;BME280;29430;52.924;-2.388;2023-05-18T22:05:04;100400.66;;;14.21;69.24
43804;BME280;29430;52.924;-2.388;2023-05-18T22:09:56;100407.19;;;14.20;69.38
43804;BME280;29430;52.924;-2.388;2023-05-18T22:14:47;100400.91;;;14.20;68.93
43804;BME280;29430;52.924;-2.388;2023-05-18T22:19:39;100400.44;;;14.23;68.49
43804;BME280;29430;52.924;-2.388;2023-05-18T22:24:32;100411.38;;;14.23;69.21
43804;BME280;29430;52.924;-2.388;2023-05-18T22:29:24;100414.09;;;14.23;69.43
43804;BME280;29430;52.924;-2.388;2023-05-18T22:34:16;100416.81;;;14.23;69.17
43804;BME280;29430;52.924;-2.388;2023-05-18T22:39:07;100417.41;;;14.25;69.58
43804;BME280;29430;52.924;-2.388;2023-05-18T22:43:59;100419.91;;;14.26;69.77
43804;BME280;29430;52.924;-2.388;2023-05-18T22:48:51;100429.38;;;14.24;69.57
43804;BME280;29430;52.924;-2.388;2023-05-18T22:53:43;100432.41;;;14.15;70.32
43804;BME280;29430;52.924;-2.388;2023-05-18T22:58:35;100427.63;;;14.11;70.15
43804;BME280;29430;52.924;-2.388;2023-05-18T23:03:27;100434.56;;;14.07;71.12
43804;BME280;29430;52.924;-2.388;2023-05-18T23:08:18;100425.63;;;14.00;70.81
43804;BME280;29430;52.924;-2.388;2023-05-18T23:13:11;100425.06;;;13.91;71.46
43804;BME280;29430;52.924;-2.388;2023-05-18T23:18:06;100421.66;;;13.70;72.57
43804;BME280;29430;52.924;-2.388;2023-05-18T23:23:00;100417.09;;;13.64;72.04
43804;BME280;29430;52.924;-2.388;2023-05-18T23:27:51;100416.91;;;13.59;71.73
43804;BME280;29430;52.924;-2.388;2023-05-18T23:32:43;100421.91;;;13.62;71.07
43804;BME280;29430;52.924;-2.388;2023-05-18T23:37:39;100426.97;;;13.58;70.37
43804;BME280;29430;52.924;-2.388;2023-05-18T23:42:31;100426.59;;;13.55;70.43
43804;BME280;29430;52.924;-2.388;2023-05-18T23:47:23;100426.22;;;13.45;70.86
43804;BME280;29430;52.924;-2.388;2023-05-18T23:52:19;100422.03;;;13.42;70.59
43804;BME280;29430;52.924;-2.388;2023-05-18T23:57:13;100420.00;;;13.31;70.24
